ilmateenistus.ee keskkonnaagentuur.ee
EETN Tallinn
FTEO31 EETN 161100
TAF EETN 161130Z 1612/1712 31015KT 9999 SCT040 TEMPO 1612/1616
    29018G28KT TEMPO 1616/1622 FEW030CB=

METAR EETN 161720Z 30009KT 9999 FEW030CB 10/03 Q1014 NOSIG=
Tallinn
EEKA Kärdla
FCEO32 EETN 161200 AAA
TAF AMD EEKA 161600Z 1613/1619 CNL=

METAR EEKA 161720Z NIL=
Kärdla
EEKE Kuressaare
FCEO32 EETN 161400
TAF EEKE 161400Z 1615/1621 33013KT 9999 SCT030 PROB40 TEMPO 1615/1618
    29016G27KT=

METAR EEKE 161720Z AUTO 33010KT 290V010 9999NDV NCD 08/00 Q1019=
Kuressaare
EEPU Pärnu
METAR EEPU 161720Z AUTO 29009KT 9999 NCD 09/03 Q1016=
Pärnu
EETU Tartu
METAR EETU 161720Z AUTO 30005KT 270V340 9999 NCD 12/M00 Q1013=
Tartu
EEEI Ämari
METAR EEEI 161650Z 31011G21KT 9999 VCSH FEW025TCU 09/03 Q1015 NOSIG=
Ämari